createdAt,value
2024-02-12T00:00:49.132Z,95480.16
2024-02-12T00:03:18.494Z,95478.00
2024-02-12T00:05:47.928Z,95482.97
2024-02-12T00:08:16.527Z,95480.66
2024-02-12T00:10:44.569Z,95480.22
2024-02-12T00:13:12.844Z,95488.28
2024-02-12T00:15:40.898Z,95484.41
2024-02-12T00:18:10.182Z,95480.16
2024-02-12T00:20:37.994Z,95487.91
2024-02-12T00:23:06.425Z,95484.38
2024-02-12T00:25:35.056Z,95488.88
2024-02-12T00:28:02.804Z,95493.69
2024-02-12T00:30:34.818Z,95488.53
2024-02-12T00:33:05.150Z,95497.22
2024-02-12T00:35:34.712Z,95494.59
2024-02-12T00:38:02.671Z,95497.03
2024-02-12T00:40:31.011Z,95492.06
2024-02-12T00:42:59.588Z,95495.38
2024-02-12T00:45:27.986Z,95497.25
2024-02-12T00:47:57.378Z,95503.28
2024-02-12T00:50:25.081Z,95497.25
2024-02-12T00:52:54.417Z,95498.97
2024-02-12T00:55:22.136Z,95499.88
2024-02-12T00:57:49.754Z,95503.16
2024-02-12T01:00:18.199Z,95502.06
2024-02-12T01:02:46.895Z,95500.03
2024-02-12T01:05:15.394Z,95506.09
2024-02-12T01:07:43.415Z,95499.75
2024-02-12T01:10:14.465Z,95504.69
2024-02-12T01:12:43.531Z,95493.22
2024-02-12T01:15:11.758Z,95501.72
2024-02-12T01:17:44.753Z,95498.97
2024-02-12T01:20:18.243Z,95504.25
2024-02-12T01:22:46.241Z,95497.41
2024-02-12T01:25:15.406Z,95502.88
2024-02-12T01:27:42.970Z,95502.69
2024-02-12T01:30:11.733Z,95511.06
2024-02-12T01:32:40.340Z,95507.34
2024-02-12T01:35:08.895Z,95508.72
2024-02-12T01:37:36.664Z,95514.59
2024-02-12T01:40:05.076Z,95512.16
2024-02-12T01:42:33.140Z,95510.91
2024-02-12T01:45:05.653Z,95508.56
2024-02-12T01:47:34.896Z,95505.03
2024-02-12T01:50:03.305Z,95513.69
2024-02-12T01:52:32.755Z,95517.75
2024-02-12T01:55:03.786Z,95513.41
2024-02-12T01:57:31.705Z,95517.72
2024-02-12T02:00:01.122Z,95508.13
2024-02-12T02:02:28.759Z,95514.03
2024-02-12T02:04:56.553Z,95518.06
2024-02-12T02:07:25.297Z,95515.88
2024-02-12T02:09:52.887Z,95511.38
2024-02-12T02:12:23.095Z,95514.47
2024-02-12T02:14:50.940Z,95523.47
2024-02-12T02:17:21.308Z,95514.50
2024-02-12T02:19:49.950Z,95510.16
2024-02-12T02:22:18.290Z,95512.16
2024-02-12T02:24:47.242Z,95507.22
2024-02-12T02:27:15.465Z,95507.66
2024-02-12T02:29:44.097Z,95504.41
2024-02-12T02:32:11.802Z,95500.38
2024-02-12T02:34:39.514Z,95492.00
2024-02-12T02:37:07.590Z,95497.72
2024-02-12T02:39:35.156Z,95501.47
2024-02-12T02:42:04.631Z,95501.59
2024-02-12T02:44:32.341Z,95504.56
2024-02-12T02:47:00.045Z,95501.28
2024-02-12T02:49:27.662Z,95512.31
2024-02-12T02:51:56.350Z,95508.59
2024-02-12T02:54:24.018Z,95510.00
2024-02-12T02:56:53.089Z,95511.38
2024-02-12T02:59:22.371Z,95508.41
2024-02-12T03:01:50.022Z,95514.31
2024-02-12T03:04:18.066Z,95517.09
2024-02-12T03:06:45.773Z,95517.91
2024-02-12T03:09:14.743Z,95514.63
2024-02-12T03:11:42.578Z,95518.66
2024-02-12T03:14:10.653Z,95527.31
2024-02-12T03:16:39.756Z,95524.22
2024-02-12T03:19:07.484Z,95528.56
2024-02-12T03:21:35.526Z,95529.81
2024-02-12T03:24:03.320Z,95532.59
2024-02-12T03:26:31.806Z,95533.38
2024-02-12T03:28:59.474Z,95538.53
2024-02-12T03:31:26.284Z,95543.63
2024-02-12T03:33:55.300Z,95549.53
2024-02-12T03:36:23.782Z,95538.84
2024-02-12T03:38:51.343Z,95539.75
2024-02-12T03:41:25.558Z,95539.75
2024-02-12T03:43:54.513Z,95542.41
2024-02-12T03:46:22.421Z,95546.44
2024-02-12T03:49:08.387Z,95549.97
2024-02-12T03:51:55.035Z,95558.22
2024-02-12T03:54:40.080Z,95561.31
2024-02-12T03:57:25.377Z,95553.72
2024-02-12T03:59:52.988Z,95563.34
2024-02-12T04:02:20.855Z,95562.22
2024-02-12T04:04:48.523Z,95563.78
2024-02-12T04:07:17.643Z,95566.75
2024-02-12T04:09:45.263Z,95564.25
2024-02-12T04:12:13.471Z,95577.59
2024-02-12T04:14:43.751Z,95571.25
2024-02-12T04:17:13.115Z,95583.50
2024-02-12T04:19:40.981Z,95576.97
2024-02-12T04:22:11.947Z,95581.78
2024-02-12T04:24:42.144Z,95588.94
2024-02-12T04:27:11.223Z,95589.22
2024-02-12T04:29:41.309Z,95585.66
2024-02-12T04:32:12.808Z,95587.81
2024-02-12T04:34:41.954Z,95597.41
2024-02-12T04:37:11.608Z,95600.78
2024-02-12T04:39:39.869Z,95604.03
2024-02-12T04:42:09.074Z,95600.03
2024-02-12T04:44:36.754Z,95610.75
2024-02-12T04:47:05.496Z,95610.63
2024-02-12T04:49:34.698Z,95611.59
2024-02-12T04:52:02.360Z,95609.66
2024-02-12T04:54:29.974Z,95610.63
2024-02-12T04:56:57.550Z,95614.03
2024-02-12T04:59:26.520Z,95608.94
2024-02-12T05:01:55.942Z,95607.22
2024-02-12T05:04:23.864Z,95613.41
2024-02-12T05:06:52.700Z,95608.16
2024-02-12T05:09:20.545Z,95608.31
2024-02-12T05:11:48.277Z,95606.91
2024-02-12T05:14:15.933Z,95604.44
2024-02-12T05:16:46.901Z,95605.69
2024-02-12T05:19:32.256Z,95607.69
2024-02-12T05:22:17.511Z,95609.06
2024-02-12T05:24:45.077Z,95612.59
2024-02-12T05:27:12.670Z,95617.88
2024-02-12T05:29:40.403Z,95618.06
2024-02-12T05:32:09.650Z,95615.22
2024-02-12T05:34:37.780Z,95609.22
2024-02-12T05:37:06.972Z,95610.44
2024-02-12T05:39:35.324Z,95619.91
2024-02-12T05:42:03.147Z,95618.19
2024-02-12T05:44:30.853Z,95626.72
2024-02-12T05:46:58.760Z,95621.16
2024-02-12T05:49:30.065Z,95612.59
2024-02-12T05:51:57.713Z,95615.72
2024-02-12T05:54:26.499Z,95625.59
2024-02-12T05:56:54.127Z,95626.13
2024-02-12T05:59:21.741Z,95631.06
2024-02-12T06:01:49.360Z,95632.28
2024-02-12T06:04:16.957Z,95640.38
2024-02-12T06:06:46.928Z,95646.13
2024-02-12T06:09:15.054Z,95648.84
2024-02-12T06:11:42.800Z,95635.22
2024-02-12T06:14:10.435Z,95635.72
2024-02-12T06:16:38.667Z,95640.38
2024-02-12T06:19:08.373Z,95650.91
2024-02-12T06:21:37.283Z,95647.22
2024-02-12T06:24:07.079Z,95649.38
2024-02-12T06:26:34.880Z,95652.59
2024-02-12T06:29:04.768Z,95649.03
2024-02-12T06:31:33.079Z,95654.66
2024-02-12T06:34:00.870Z,95661.63
2024-02-12T06:36:29.969Z,95668.28
2024-02-12T06:38:57.740Z,95660.38
2024-02-12T06:41:28.162Z,95664.09
2024-02-12T06:43:55.949Z,95670.13
2024-02-12T06:46:23.970Z,95672.00
2024-02-12T06:48:51.736Z,95677.44
2024-02-12T06:51:19.366Z,95672.34
2024-02-12T06:53:47.395Z,95687.53
2024-02-12T06:56:15.116Z,95680.09
2024-02-12T06:58:45.582Z,95681.34
2024-02-12T07:01:14.586Z,95687.06
2024-02-12T07:03:45.876Z,95684.13
2024-02-12T07:06:13.623Z,95695.78
2024-02-12T07:08:42.278Z,95696.09
2024-02-12T07:11:14.299Z,95700.59
2024-02-12T07:13:41.888Z,95698.41
2024-02-12T07:16:17.805Z,95697.78
2024-02-12T07:18:45.496Z,95710.97
2024-02-12T07:21:13.689Z,95711.16
2024-02-12T07:23:41.819Z,95698.13
2024-02-12T07:26:09.784Z,95690.81
2024-02-12T07:28:38.157Z,95706.16
2024-02-12T07:31:09.036Z,95696.38
2024-02-12T07:33:38.310Z,95703.53
2024-02-12T07:36:07.713Z,95698.13
2024-02-12T07:38:35.502Z,95702.78
2024-02-12T07:41:03.379Z,95711.16
2024-02-12T07:43:31.432Z,95720.31
2024-02-12T07:45:59.404Z,95714.56
2024-02-12T07:48:28.035Z,95720.66
2024-02-12T07:50:57.733Z,95724.53
2024-02-12T07:53:30.036Z,95735.84
2024-02-12T07:55:58.074Z,95733.66
2024-02-12T07:58:25.882Z,95734.31
2024-02-12T08:00:53.703Z,95739.88
2024-02-12T08:03:22.109Z,95733.50
2024-02-12T08:05:51.850Z,95737.84
2024-02-12T08:08:21.116Z,95741.28
2024-02-12T08:10:48.961Z,95742.06
2024-02-12T08:13:16.759Z,95746.25
2024-02-12T08:15:44.943Z,95753.22
2024-02-12T08:18:20.782Z,95757.25
2024-02-12T08:20:49.050Z,95755.41
2024-02-12T08:23:17.096Z,95755.25
2024-02-12T08:25:46.465Z,95748.28
2024-02-12T08:28:14.398Z,95763.63
2024-02-12T08:30:42.681Z,95771.72
2024-02-12T08:33:11.085Z,95767.84
2024-02-12T08:35:38.993Z,95776.06
2024-02-12T08:38:09.360Z,95771.72
2024-02-12T08:40:37.402Z,95779.63
2024-02-12T08:43:07.573Z,95776.38
2024-02-12T08:45:38.661Z,95785.22
2024-02-12T08:48:08.121Z,95787.25
2024-02-12T08:50:42.847Z,95781.50
2024-02-12T08:53:11.881Z,95787.56
2024-02-12T08:55:39.887Z,95791.59
2024-02-12T08:58:12.021Z,95793.78
2024-02-12T09:00:40.312Z,95792.38
2024-02-12T09:03:08.267Z,95800.16
2024-02-12T09:05:35.972Z,95798.59
2024-02-12T09:08:04.031Z,95801.88
2024-02-12T09:10:32.229Z,95794.41
2024-02-12T09:13:01.235Z,95800.28
2024-02-12T09:15:30.325Z,95804.50
2024-02-12T09:17:59.578Z,95806.19
2024-02-12T09:20:27.388Z,95807.16
2024-02-12T09:22:55.356Z,95815.38
2024-02-12T09:25:24.710Z,95816.75
2024-02-12T09:27:54.116Z,95811.47
2024-02-12T09:30:21.717Z,95818.31
2024-02-12T09:32:51.310Z,95818.00
2024-02-12T09:35:20.754Z,95826.22
2024-02-12T09:37:50.538Z,95826.88
2024-02-12T09:40:22.537Z,95825.63
2024-02-12T09:42:52.849Z,95829.41
2024-02-12T09:45:20.823Z,95825.19
2024-02-12T09:47:50.209Z,95827.38
2024-02-12T09:50:19.021Z,95826.44
2024-02-12T09:52:47.209Z,95825.03
2024-02-12T09:55:15.272Z,95825.97
2024-02-12T09:57:45.030Z,95831.19
2024-02-12T10:00:13.946Z,95827.97
2024-02-12T10:02:41.913Z,95827.31
2024-02-12T10:05:19.370Z,95831.84
2024-02-12T10:07:47.415Z,95828.91
2024-02-12T10:10:16.101Z,95837.25
2024-02-12T10:12:43.973Z,95835.63
2024-02-12T10:15:14.770Z,95832.34
2024-02-12T10:17:44.020Z,95840.91
2024-02-12T10:20:13.170Z,95834.69
2024-02-12T10:22:41.538Z,95846.63
2024-02-12T10:25:10.443Z,95851.00
2024-02-12T10:27:39.272Z,95852.53
2024-02-12T10:30:07.953Z,95843.16
2024-02-12T10:32:36.956Z,95855.94
2024-02-12T10:35:08.262Z,95852.81
2024-02-12T10:37:38.236Z,95846.63
2024-02-12T10:40:14.016Z,95853.78
2024-02-12T10:42:49.898Z,95850.69
2024-02-12T10:45:18.437Z,95849.44
2024-02-12T10:47:46.542Z,95846.00
2024-02-12T10:50:15.847Z,95842.91
2024-02-12T10:52:45.368Z,95852.06
2024-02-12T10:55:13.463Z,95836.25
2024-02-12T10:57:43.792Z,95838.09
2024-02-12T11:00:20.789Z,95836.53
2024-02-12T11:02:51.675Z,95834.22
2024-02-12T11:05:19.978Z,95840.59
2024-02-12T11:07:49.153Z,95835.75
2024-02-12T11:10:20.632Z,95837.78
2024-02-12T11:12:48.381Z,95844.47
2024-02-12T11:15:23.060Z,95844.16
2024-02-12T11:17:50.932Z,95840.72
2024-02-12T11:20:19.017Z,95836.22
2024-02-12T11:22:47.764Z,95841.53
2024-02-12T11:25:23.416Z,95836.53
2024-02-12T11:27:53.659Z,95827.81
2024-02-12T11:30:22.054Z,95834.50
2024-02-12T11:32:50.570Z,95839.94
2024-02-12T11:35:20.302Z,95841.78
2024-02-12T11:37:49.273Z,95838.03
2024-02-12T11:40:21.352Z,95846.19
2024-02-12T11:42:51.007Z,95835.28
2024-02-12T11:45:19.484Z,95834.19
2024-02-12T11:47:48.791Z,95835.75
2024-02-12T11:50:21.145Z,95837.38
2024-02-12T11:52:49.202Z,95832.00
2024-02-12T11:55:17.236Z,95831.03
2024-02-12T11:57:47.593Z,95834.97
2024-02-12T12:00:18.609Z,95830.72
2024-02-12T12:02:48.199Z,95834.81
2024-02-12T12:05:19.068Z,95842.38
2024-02-12T12:07:47.513Z,95828.38
2024-02-12T12:10:21.765Z,95830.31
2024-02-12T12:12:59.266Z,95830.59
2024-02-12T12:15:30.251Z,95832.38
2024-02-12T12:17:59.920Z,95828.38
2024-02-12T12:20:31.267Z,95826.66
2024-02-12T12:23:01.702Z,95833.91
2024-02-12T12:25:29.633Z,95832.31
2024-02-12T12:27:58.724Z,95825.03
2024-02-12T12:30:27.647Z,95833.66
2024-02-12T12:32:55.538Z,95835.38
2024-02-12T12:35:24.847Z,95835.56
2024-02-12T12:37:53.342Z,95837.94
2024-02-12T12:40:21.526Z,95831.34
2024-02-12T12:42:50.484Z,95835.50
2024-02-12T12:45:19.933Z,95844.34
2024-02-12T12:47:49.841Z,95839.63
2024-02-12T12:50:18.058Z,95836.56
2024-02-12T12:52:45.897Z,95849.25
2024-02-12T12:55:15.401Z,95843.59
2024-02-12T12:57:45.099Z,95842.63
2024-02-12T13:00:20.146Z,95843.59
2024-02-12T13:02:54.136Z,95852.00
2024-02-12T13:05:23.881Z,95839.97
2024-02-12T13:08:17.024Z,95852.25
2024-02-12T13:10:42.857Z,95842.16
2024-02-12T13:13:15.121Z,95850.22
2024-02-12T13:15:45.280Z,95838.97
2024-02-12T13:18:18.430Z,95839.69
2024-02-12T13:20:48.829Z,95840.13
2024-02-12T13:23:18.875Z,95839.50
2024-02-12T13:25:46.754Z,95843.06
2024-02-12T13:28:17.137Z,95847.25
2024-02-12T13:30:47.915Z,95846.91
2024-02-12T13:33:18.535Z,95848.81
2024-02-12T13:35:48.522Z,95845.44
2024-02-12T13:38:19.259Z,95855.06
2024-02-12T13:40:47.221Z,95851.53
2024-02-12T13:43:16.525Z,95854.19
2024-02-12T13:45:45.058Z,95855.00
2024-02-12T13:48:12.964Z,95860.31
2024-02-12T13:50:42.173Z,95860.84
2024-02-12T13:53:11.142Z,95871.44
2024-02-12T13:55:41.436Z,95876.22
2024-02-12T13:58:09.333Z,95877.38
2024-02-12T14:00:54.959Z,95881.22
2024-02-12T14:03:26.947Z,95884.59
2024-02-12T14:05:56.843Z,95885.75
2024-02-12T14:08:24.701Z,95889.44
2024-02-12T14:10:54.487Z,95895.28
2024-02-12T14:13:22.406Z,95895.22
2024-02-12T14:16:05.234Z,95907.25
2024-02-12T14:18:37.453Z,95914.66
2024-02-12T14:21:09.680Z,95923.03
2024-02-12T14:23:37.320Z,95920.09
2024-02-12T14:26:05.895Z,95929.72
2024-02-12T14:28:33.985Z,95930.34
2024-02-12T14:31:01.634Z,95933.03
2024-02-12T14:33:29.537Z,95929.81
2024-02-12T14:35:58.444Z,95926.53
2024-02-12T14:38:27.542Z,95936.00
2024-02-12T14:40:57.607Z,95940.28
2024-02-12T14:43:25.539Z,95940.69
2024-02-12T14:45:53.429Z,95944.25
2024-02-12T14:48:22.143Z,95948.63
2024-02-12T14:50:50.342Z,95948.56
2024-02-12T14:53:21.912Z,95957.75
2024-02-12T14:55:53.511Z,95957.63
2024-02-12T14:58:21.203Z,95953.91
2024-02-12T15:00:49.175Z,95952.88
2024-02-12T15:03:16.857Z,95958.16
2024-02-12T15:05:44.550Z,95964.25
2024-02-12T15:08:12.290Z,95971.13
2024-02-12T15:10:40.677Z,95970.31
2024-02-12T15:13:09.655Z,95972.63
2024-02-12T15:15:37.314Z,95971.25
2024-02-12T15:18:05.369Z,95981.34
2024-02-12T15:20:35.156Z,95985.22
2024-02-12T15:23:05.768Z,95988.78
2024-02-12T15:25:33.782Z,95986.16
2024-02-12T15:28:03.131Z,95998.75
2024-02-12T15:30:32.404Z,96001.75
2024-02-12T15:33:00.531Z,96009.44
2024-02-12T15:35:28.675Z,96005.72
2024-02-12T15:37:58.660Z,96003.13
2024-02-12T15:40:26.498Z,96006.38
2024-02-12T15:42:56.374Z,96009.94
2024-02-12T15:45:25.257Z,96008.28
2024-02-12T15:47:58.092Z,96012.22
2024-02-12T15:50:27.257Z,96020.19
2024-02-12T15:52:56.188Z,96033.56
2024-02-12T15:55:26.114Z,96028.53
2024-02-12T15:57:55.340Z,96037.81
2024-02-12T16:00:27.591Z,96036.84
2024-02-12T16:03:00.403Z,96045.81
2024-02-12T16:06:08.359Z,96046.25
2024-02-12T16:08:38.877Z,96049.81
2024-02-12T16:11:08.222Z,96046.19
2024-02-12T16:13:36.712Z,96052.13
2024-02-12T16:16:07.166Z,96056.00
2024-02-12T16:18:36.696Z,96060.31
2024-02-12T16:21:06.534Z,96064.81
2024-02-12T16:23:35.189Z,96065.34
2024-02-12T16:26:05.125Z,96077.38
2024-02-12T16:28:33.648Z,96091.91
2024-02-12T16:31:02.239Z,96098.06
2024-02-12T16:33:30.557Z,96095.22
2024-02-12T16:36:00.329Z,96104.75
2024-02-12T16:38:28.831Z,96114.13
2024-02-12T16:40:56.639Z,96112.25
2024-02-12T16:43:24.393Z,96122.50
2024-02-12T16:45:52.060Z,96127.16
2024-02-12T16:48:20.419Z,96128.25
2024-02-12T16:50:48.208Z,96145.16
2024-02-12T16:53:17.448Z,96147.78
2024-02-12T16:55:45.088Z,96149.75
2024-02-12T16:58:14.403Z,96157.97
2024-02-12T17:00:42.450Z,96170.09
2024-02-12T17:03:10.272Z,96169.31
2024-02-12T17:05:38.223Z,96166.97
2024-02-12T17:08:08.389Z,96173.78
2024-02-12T17:10:38.156Z,96177.94
2024-02-12T17:13:06.967Z,96179.81
2024-02-12T17:15:37.619Z,96180.44
2024-02-12T17:18:09.832Z,96188.81
2024-02-12T17:20:39.902Z,96192.66
2024-02-12T17:23:11.237Z,96199.53
2024-02-12T17:25:41.259Z,96210.47
2024-02-12T17:28:10.622Z,96214.66
2024-02-12T17:30:38.363Z,96218.00
2024-02-12T17:33:08.988Z,96231.22
2024-02-12T17:35:37.346Z,96230.06
2024-02-12T17:38:05.931Z,96229.72
2024-02-12T17:40:34.310Z,96233.06
2024-02-12T17:43:04.961Z,96235.94
2024-02-12T17:45:32.583Z,96240.69
2024-02-12T17:48:01.678Z,96246.13
2024-02-12T17:50:30.639Z,96255.16
2024-02-12T17:52:58.400Z,96256.69
2024-02-12T17:55:26.010Z,96263.13
2024-02-12T17:57:54.004Z,96260.63
2024-02-12T18:00:24.438Z,96268.41
2024-02-12T18:02:52.119Z,96270.97
2024-02-12T18:05:19.867Z,96278.91
2024-02-12T18:07:48.095Z,96286.66
2024-02-12T18:10:15.839Z,96289.97
2024-02-12T18:12:45.727Z,96300.97
2024-02-12T18:15:14.558Z,96304.91
2024-02-12T18:17:45.732Z,96311.78
2024-02-12T18:20:14.361Z,96319.03
2024-02-12T18:22:42.510Z,96317.09
2024-02-12T18:25:12.713Z,96325.31
2024-02-12T18:27:40.902Z,96325.72
2024-02-12T18:30:12.114Z,96334.63
2024-02-12T18:32:41.411Z,96338.50
2024-02-12T18:35:11.923Z,96342.03
2024-02-12T18:37:40.952Z,96337.56
2024-02-12T18:40:17.654Z,96337.09
2024-02-12T18:42:45.991Z,96345.88
2024-02-12T18:45:16.621Z,96348.59
2024-02-12T18:47:48.691Z,96339.63
2024-02-12T18:50:19.064Z,96353.22
2024-02-12T18:52:49.965Z,96354.28
2024-02-12T18:55:18.880Z,96367.66
2024-02-12T18:57:48.140Z,96362.75
2024-02-12T19:00:17.164Z,96359.34
2024-02-12T19:02:46.573Z,96373.44
2024-02-12T19:05:14.568Z,96376.97
2024-02-12T19:07:43.824Z,96377.53
2024-02-12T19:10:12.611Z,96382.97
2024-02-12T19:12:43.084Z,96388.09
2024-02-12T19:15:14.924Z,96385.53
2024-02-12T19:17:43.400Z,96393.19
2024-02-12T19:20:13.640Z,96393.38
2024-02-12T19:22:42.785Z,96396.91
2024-02-12T19:25:11.994Z,96404.47
2024-02-12T19:27:42.897Z,96402.69
2024-02-12T19:30:12.713Z,96413.16
2024-02-12T19:32:40.700Z,96416.63
2024-02-12T19:35:11.296Z,96415.84
2024-02-12T19:37:39.535Z,96424.66
2024-02-12T19:40:15.075Z,96430.56
2024-02-12T19:42:45.564Z,96434.38
2024-02-12T19:45:14.382Z,96445.44
2024-02-12T19:47:42.267Z,96444.66
2024-02-12T19:50:12.441Z,96455.53
2024-02-12T19:52:40.721Z,96459.31
2024-02-12T19:55:10.244Z,96464.19
2024-02-12T19:57:39.760Z,96471.47
2024-02-12T20:00:13.777Z,96472.34
2024-02-12T20:02:41.735Z,96473.66
2024-02-12T20:05:09.762Z,96481.06
2024-02-12T20:07:39.088Z,96489.22
2024-02-12T20:10:09.076Z,96489.16
2024-02-12T20:12:39.448Z,96496.16
2024-02-12T20:15:08.730Z,96502.03
2024-02-12T20:17:36.645Z,96507.03
2024-02-12T20:20:06.467Z,96506.78
2024-02-12T20:22:34.376Z,96514.38
2024-02-12T20:25:01.976Z,96516.38
2024-02-12T20:27:29.583Z,96515.59
2024-02-12T20:29:58.579Z,96519.47
2024-02-12T20:32:27.931Z,96529.78
2024-02-12T20:34:56.929Z,96536.69
2024-02-12T20:37:25.403Z,96538.75
2024-02-12T20:39:53.004Z,96533.13
2024-02-12T20:42:21.184Z,96545.66
2024-02-12T20:44:49.827Z,96550.16
2024-02-12T20:47:20.098Z,96552.50
2024-02-12T20:49:49.472Z,96557.28
2024-02-12T20:52:18.576Z,96560.78
2024-02-12T20:54:46.566Z,96564.22
2024-02-12T20:57:15.261Z,96566.22
2024-02-12T20:59:43.860Z,96570.69
2024-02-12T21:02:12.437Z,96568.91
2024-02-12T21:04:43.197Z,96576.31
2024-02-12T21:07:11.660Z,96579.56
2024-02-12T21:09:41.233Z,96576.50
2024-02-12T21:12:09.862Z,96582.53
2024-02-12T21:14:38.965Z,96586.03
2024-02-12T21:17:07.854Z,96591.00
2024-02-12T21:19:36.023Z,96591.56
2024-02-12T21:22:07.106Z,96593.47
2024-02-12T21:24:34.683Z,96589.78
2024-02-12T21:27:03.250Z,96600.91
2024-02-12T21:29:31.010Z,96599.84
2024-02-12T21:31:58.937Z,96598.00
2024-02-12T21:34:27.611Z,96609.59
2024-02-12T21:36:55.302Z,96610.09
2024-02-12T21:39:35.107Z,96616.53
2024-02-12T21:42:09.727Z,96620.75
2024-02-12T21:44:39.167Z,96613.66
2024-02-12T21:47:08.148Z,96618.16
2024-02-12T21:49:35.967Z,96622.59
2024-02-12T21:52:03.624Z,96631.91
2024-02-12T21:54:33.214Z,96628.16
2024-02-12T21:57:01.074Z,96635.41
2024-02-12T21:59:28.889Z,96640.94
2024-02-12T22:01:56.515Z,96646.69
2024-02-12T22:04:24.248Z,96646.34
2024-02-12T22:06:51.971Z,96651.06
2024-02-12T22:09:19.847Z,96658.13
2024-02-12T22:11:49.205Z,96657.84
2024-02-12T22:14:17.241Z,96662.94
2024-02-12T22:16:44.911Z,96664.25
2024-02-12T22:19:12.616Z,96660.06
2024-02-12T22:21:42.280Z,96663.59
2024-02-12T22:24:10.148Z,96667.72
2024-02-12T22:26:38.480Z,96669.09
2024-02-12T22:29:07.538Z,96675.06
2024-02-12T22:31:35.201Z,96677.94
2024-02-12T22:34:04.736Z,96690.44
2024-02-12T22:36:32.512Z,96694.00
2024-02-12T22:39:00.159Z,96701.59
2024-02-12T22:41:27.822Z,96689.94
2024-02-12T22:43:55.583Z,96691.81
2024-02-12T22:46:24.556Z,96694.44
2024-02-12T22:48:52.453Z,96703.34
2024-02-12T22:51:21.110Z,96699.16
2024-02-12T22:53:48.923Z,96702.34
2024-02-12T22:56:16.628Z,96711.03
2024-02-12T22:58:44.743Z,96709.78
2024-02-12T23:01:12.535Z,96716.06
2024-02-12T23:03:41.663Z,96724.25
2024-02-12T23:06:10.524Z,96729.75
2024-02-12T23:08:38.266Z,96733.09
2024-02-12T23:11:05.917Z,96737.59
2024-02-12T23:13:33.565Z,96732.28
2024-02-12T23:16:01.162Z,96737.53
2024-02-12T23:18:29.079Z,96748.06
2024-02-12T23:20:58.553Z,96744.41
2024-02-12T23:23:27.647Z,96748.28
2024-02-12T23:25:55.275Z,96752.47
2024-02-12T23:28:22.868Z,96751.72
2024-02-12T23:30:50.512Z,96752.84
2024-02-12T23:33:19.436Z,96758.94
2024-02-12T23:35:48.173Z,96756.09
2024-02-12T23:38:18.903Z,96756.91
2024-02-12T23:40:46.779Z,96763.25
2024-02-12T23:43:14.893Z,96771.41
2024-02-12T23:45:43.458Z,96774.31
2024-02-12T23:48:11.374Z,96769.53
2024-02-12T23:50:40.508Z,96790.09
2024-02-12T23:53:08.468Z,96786.81
2024-02-12T23:55:36.452Z,96789.09
2024-02-12T23:58:05.281Z,96790.34
